createdAt,value
2019-05-13T00:00:57.548Z,19.93
2019-05-13T00:04:03.439Z,19.10
2019-05-13T00:07:06.443Z,18.50
2019-05-13T00:10:10.053Z,18.40
2019-05-13T00:13:14.778Z,19.07
2019-05-13T00:16:18.616Z,18.90
2019-05-13T00:19:23.349Z,19.27
2019-05-13T00:22:26.991Z,20.67
2019-05-13T00:25:30.617Z,19.90
2019-05-13T00:28:34.568Z,20.90
2019-05-13T00:31:38.091Z,20.97
2019-05-13T00:34:44.347Z,21.63
2019-05-13T00:37:46.834Z,21.47
2019-05-13T00:40:50.348Z,21.70
2019-05-13T00:43:53.980Z,21.07
2019-05-13T00:46:57.593Z,19.67
2019-05-13T00:50:03.479Z,19.43
2019-05-13T00:53:06.289Z,19.37
2019-05-13T00:56:09.794Z,19.23
2019-05-13T00:59:14.140Z,18.57
2019-05-13T01:02:17.997Z,18.20
2019-05-13T01:05:23.399Z,18.57
2019-05-13T01:08:26.797Z,18.50
2019-05-13T01:11:30.422Z,18.07
2019-05-13T01:14:34.290Z,18.90
2019-05-13T01:17:38.191Z,19.63
2019-05-13T01:20:43.673Z,19.07
2019-05-13T01:23:46.938Z,18.63
2019-05-13T01:26:50.471Z,18.17
2019-05-13T01:29:54.062Z,19.03
2019-05-13T01:32:57.634Z,19.67
2019-05-13T01:36:01.171Z,20.37
2019-05-13T01:39:06.697Z,19.03
2019-05-13T01:42:10.281Z,20.13
2019-05-13T01:45:14.315Z,18.67
2019-05-13T01:48:17.974Z,19.97
2019-05-13T01:51:23.855Z,19.47
2019-05-13T01:54:26.915Z,19.93
2019-05-13T01:57:30.425Z,19.40
2019-05-13T02:00:35.239Z,19.57
2019-05-13T02:03:39.300Z,17.87
2019-05-13T02:06:44.326Z,17.77
2019-05-13T02:09:48.232Z,18.47
2019-05-13T02:12:53.546Z,17.17
2019-05-13T02:15:57.182Z,18.03
2019-05-13T02:19:00.741Z,16.23
2019-05-13T02:22:04.363Z,15.97
2019-05-13T02:25:07.945Z,15.47
2019-05-13T02:28:13.797Z,15.90
2019-05-13T02:31:25.832Z,15.90
2019-05-13T02:34:23.251Z,16.03
2019-05-13T02:37:29.597Z,16.27
2019-05-13T02:40:33.071Z,14.97
2019-05-13T02:43:40.999Z,15.30
2019-05-13T02:46:44.335Z,14.60
2019-05-13T02:49:47.232Z,14.30
2019-05-13T02:52:53.157Z,13.67
2019-05-13T02:55:55.951Z,14.17
2019-05-13T02:58:59.473Z,14.53
2019-05-13T03:02:03.785Z,15.17
2019-05-13T03:05:08.086Z,16.20
2019-05-13T03:08:12.731Z,16.27
2019-05-13T03:11:16.489Z,15.70
2019-05-13T03:14:23.535Z,15.53
2019-05-13T03:17:27.053Z,14.63
2019-05-13T03:20:33.297Z,13.77
2019-05-13T03:23:36.543Z,13.80
2019-05-13T03:26:42.741Z,13.30
2019-05-13T03:29:45.651Z,11.73
2019-05-13T03:32:55.184Z,11.73
2019-05-13T03:35:56.129Z,11.73
2019-05-13T03:39:07.071Z,11.40
2019-05-13T03:42:04.907Z,10.27
2019-05-13T03:45:08.658Z,9.60
2019-05-13T03:48:12.412Z,10.70
2019-05-13T03:51:16.162Z,9.70
2019-05-13T03:54:22.732Z,9.90
2019-05-13T03:57:25.292Z,8.93
2019-05-13T04:00:32.058Z,9.67
2019-05-13T04:03:34.356Z,8.73
2019-05-13T04:06:37.847Z,9.73
2019-05-13T04:09:42.416Z,9.67
2019-05-13T04:12:46.521Z,9.10
2019-05-13T04:15:52.859Z,9.50
2019-05-13T04:18:55.299Z,10.10
2019-05-13T04:22:02.089Z,9.53
2019-05-13T04:25:04.883Z,10.70
2019-05-13T04:28:08.495Z,11.13
2019-05-13T04:31:14.039Z,12.17
2019-05-13T04:34:18.176Z,13.30
2019-05-13T04:37:22.453Z,14.60
2019-05-13T04:40:26.119Z,14.73
2019-05-13T04:43:33.812Z,15.00
2019-05-13T04:46:34.944Z,14.90
2019-05-13T04:49:38.601Z,15.17
2019-05-13T04:52:42.528Z,15.27
2019-05-13T04:55:46.380Z,15.60
2019-05-13T04:58:52.831Z,16.57
2019-05-13T05:02:04.643Z,17.10
2019-05-13T05:05:15.400Z,17.13
2019-05-13T05:08:37.111Z,17.93
2019-05-13T05:11:42.708Z,20.90
2019-05-13T05:15:04.869Z,21.60
2019-05-13T05:18:12.836Z,26.03
2019-05-13T05:21:27.053Z,26.27
2019-05-13T05:24:52.063Z,18.87
2019-05-13T05:28:02.819Z,16.63
2019-05-13T05:31:17.059Z,15.47
2019-05-13T05:34:37.094Z,14.43
2019-05-13T05:37:42.114Z,14.03
2019-05-13T05:40:47.173Z,15.90
2019-05-13T05:43:52.174Z,17.20
2019-05-13T05:46:57.431Z,16.40
2019-05-13T05:50:03.032Z,15.07
2019-05-13T05:53:06.870Z,13.77
2019-05-13T05:56:11.804Z,12.80
2019-05-13T05:59:15.354Z,11.70
2019-05-13T06:02:19.196Z,11.40
2019-05-13T06:05:22.801Z,11.93
2019-05-13T06:08:26.432Z,11.77
2019-05-13T06:11:31.233Z,10.23
2019-05-13T06:14:34.966Z,9.83
2019-05-13T06:17:38.517Z,7.63
2019-05-13T06:20:42.217Z,7.90
2019-05-13T06:23:45.736Z,8.27
2019-05-13T06:26:49.332Z,7.97
2019-05-13T06:29:53.122Z,8.67
2019-05-13T06:32:57.570Z,8.80
2019-05-13T06:36:01.331Z,7.80
2019-05-13T06:39:12.304Z,7.20
2019-05-13T06:42:16.015Z,7.17
2019-05-13T06:45:21.585Z,7.50
2019-05-13T06:48:24.718Z,6.60
2019-05-13T06:51:28.191Z,6.60
2019-05-13T06:54:32.969Z,6.37
2019-05-13T06:57:36.866Z,5.57
2019-05-13T07:00:42.742Z,5.93
2019-05-13T07:03:45.531Z,6.20
2019-05-13T07:06:51.490Z,6.10
2019-05-13T07:09:54.755Z,6.53
2019-05-13T07:12:58.596Z,6.07
2019-05-13T07:16:02.163Z,6.53
2019-05-13T07:19:05.681Z,6.73
2019-05-13T07:22:11.499Z,6.57
2019-05-13T07:25:14.666Z,6.93
2019-05-13T07:28:18.322Z,6.93
2019-05-13T07:31:21.943Z,6.60
2019-05-13T07:34:25.539Z,7.13
2019-05-13T07:37:29.066Z,7.10
2019-05-13T07:40:32.631Z,6.40
2019-05-13T07:43:36.172Z,7.13
2019-05-13T07:46:42.463Z,6.93
2019-05-13T07:49:44.895Z,7.17
2019-05-13T07:52:48.413Z,7.00
2019-05-13T07:55:52.580Z,6.47
2019-05-13T07:58:56.304Z,6.77
2019-05-13T08:02:02.150Z,6.37
2019-05-13T08:05:06.579Z,6.80
2019-05-13T08:08:11.718Z,6.23
2019-05-13T08:11:15.370Z,6.07
2019-05-13T08:14:18.912Z,6.47
2019-05-13T08:17:22.680Z,5.53
2019-05-13T08:20:26.290Z,6.07
2019-05-13T08:23:32.164Z,5.77
2019-05-13T08:26:38.179Z,6.57
2019-05-13T08:29:42.185Z,6.20
2019-05-13T08:32:47.368Z,5.83
2019-05-13T08:35:54.193Z,7.50
2019-05-13T08:38:57.476Z,5.70
2019-05-13T08:42:15.018Z,5.50
2019-05-13T08:45:09.077Z,5.33
2019-05-13T08:48:13.165Z,5.93
2019-05-13T08:51:17.030Z,5.60
2019-05-13T08:54:21.954Z,5.40
2019-05-13T08:57:26.348Z,5.93
2019-05-13T09:00:48.429Z,7.17
2019-05-13T09:03:52.667Z,6.63
2019-05-13T09:06:57.380Z,6.43
2019-05-13T09:10:02.031Z,7.00
2019-05-13T09:13:06.503Z,7.60
2019-05-13T09:16:13.155Z,7.60
2019-05-13T09:19:16.414Z,7.83
2019-05-13T09:22:21.476Z,8.07
2019-05-13T09:25:25.539Z,7.87
2019-05-13T09:28:29.469Z,8.70
2019-05-13T09:31:33.401Z,9.23
2019-05-13T09:34:37.339Z,9.30
2019-05-13T09:37:42.330Z,9.80
2019-05-13T09:40:46.684Z,8.13
2019-05-13T09:43:51.371Z,8.57
2019-05-13T09:46:55.715Z,7.67
2019-05-13T09:49:59.560Z,7.87
2019-05-13T09:53:03.497Z,10.20
2019-05-13T09:56:07.389Z,7.40
2019-05-13T09:59:11.873Z,8.00
2019-05-13T10:02:16.273Z,8.20
2019-05-13T10:05:22.367Z,7.10
2019-05-13T10:08:27.298Z,8.13
2019-05-13T10:11:32.754Z,8.50
2019-05-13T10:14:36.634Z,7.40
2019-05-13T10:17:42.745Z,6.90
2019-05-13T10:20:58.356Z,6.63
2019-05-13T10:24:02.354Z,7.07
2019-05-13T10:27:12.232Z,6.37
2019-05-13T10:30:16.379Z,5.67
2019-05-13T10:33:22.101Z,5.60
2019-05-13T10:36:26.273Z,5.87
2019-05-13T10:39:31.730Z,6.50
2019-05-13T10:42:35.562Z,5.80
2019-05-13T10:45:41.696Z,5.93
2019-05-13T10:48:45.053Z,5.27
2019-05-13T10:51:52.420Z,4.20
2019-05-13T10:54:55.081Z,3.80
2019-05-13T10:58:01.616Z,3.50
2019-05-13T11:01:06.397Z,3.37
2019-05-13T11:04:13.427Z,3.10
2019-05-13T11:07:16.462Z,3.23
2019-05-13T11:10:24.369Z,2.97
2019-05-13T11:13:45.787Z,3.20
2019-05-13T11:16:34.731Z,3.30
2019-05-13T11:19:38.678Z,3.13
2019-05-13T11:22:42.598Z,3.53
2019-05-13T11:25:46.700Z,3.63
2019-05-13T11:28:52.092Z,3.27
2019-05-13T11:31:56.282Z,3.60
2019-05-13T11:35:01.882Z,3.70
2019-05-13T11:38:07.176Z,3.50
2019-05-13T11:41:11.888Z,3.43
2019-05-13T11:44:17.027Z,3.43
2019-05-13T11:47:21.063Z,3.70
2019-05-13T11:50:26.616Z,3.60
2019-05-13T11:53:33.511Z,3.87
2019-05-13T11:56:36.068Z,3.90
2019-05-13T11:59:42.993Z,3.40
2019-05-13T12:02:50.955Z,3.57
2019-05-13T12:05:53.723Z,3.63
2019-05-13T12:08:57.017Z,3.50
2019-05-13T12:12:03.298Z,3.60
2019-05-13T12:15:35.576Z,6.00
2019-05-13T12:18:13.335Z,4.40
2019-05-13T12:21:17.935Z,4.40
2019-05-13T12:24:23.258Z,4.20
2019-05-13T12:27:31.586Z,4.90
2019-05-13T12:30:34.413Z,4.33
2019-05-13T12:33:38.561Z,4.43
2019-05-13T12:36:43.348Z,4.33
2019-05-13T12:39:47.741Z,4.37
2019-05-13T12:42:54.095Z,4.53
2019-05-13T12:46:02.069Z,4.37
2019-05-13T12:49:04.118Z,3.93
2019-05-13T12:52:08.150Z,4.80
2019-05-13T12:55:14.057Z,4.73
2019-05-13T12:58:18.159Z,4.63
2019-05-13T13:01:23.841Z,4.90
2019-05-13T13:04:27.517Z,5.57
2019-05-13T13:07:40.839Z,4.97
2019-05-13T13:10:42.325Z,4.50
2019-05-13T13:13:59.793Z,4.63
2019-05-13T13:16:54.000Z,5.20
2019-05-13T13:20:06.138Z,4.70
2019-05-13T13:23:04.843Z,5.70
2019-05-13T13:26:15.284Z,4.87
2019-05-13T13:29:15.441Z,4.50
2019-05-13T13:32:19.464Z,5.00
2019-05-13T13:35:25.397Z,4.90
2019-05-13T13:38:32.506Z,5.13
2019-05-13T13:41:35.662Z,5.20
2019-05-13T13:44:42.686Z,4.50
2019-05-13T13:47:56.837Z,4.93
2019-05-13T13:50:56.157Z,4.60
2019-05-13T13:53:59.915Z,5.07
2019-05-13T13:57:03.964Z,5.63
2019-05-13T14:00:26.387Z,5.67
2019-05-13T14:03:16.592Z,5.10
2019-05-13T14:07:22.850Z,5.17
2019-05-13T14:09:26.336Z,5.17
2019-05-13T14:12:34.149Z,5.20
2019-05-13T14:15:38.867Z,5.17
2019-05-13T14:18:42.833Z,5.53
2019-05-13T14:21:48.250Z,4.97
2019-05-13T14:24:52.217Z,4.53
2019-05-13T14:27:56.163Z,4.33
2019-05-13T14:31:01.887Z,4.40
2019-05-13T14:34:05.684Z,5.37
2019-05-13T14:37:11.989Z,5.60
2019-05-13T14:40:16.806Z,4.30
2019-05-13T14:43:22.952Z,4.30
2019-05-13T14:46:43.021Z,4.50
2019-05-13T14:49:32.613Z,5.07
2019-05-13T14:52:44.720Z,4.97
2019-05-13T14:55:48.851Z,6.03
2019-05-13T14:58:52.724Z,5.20
2019-05-13T15:01:56.601Z,4.90
2019-05-13T15:05:02.600Z,5.40
2019-05-13T15:08:06.074Z,5.10
2019-05-13T15:11:12.349Z,5.77
2019-05-13T15:14:15.580Z,4.33
2019-05-13T15:17:19.538Z,4.20
2019-05-13T15:20:25.102Z,3.90
2019-05-13T15:23:31.458Z,8.13
2019-05-13T15:26:34.567Z,5.30
2019-05-13T15:29:38.609Z,4.93
2019-05-13T15:32:42.541Z,5.50
2019-05-13T15:35:46.445Z,7.10
2019-05-13T15:38:51.982Z,7.13
2019-05-13T15:41:55.804Z,10.40
2019-05-13T15:45:01.894Z,7.37
2019-05-13T15:48:05.345Z,14.50
2019-05-13T15:51:11.276Z,13.93
2019-05-13T15:54:17.505Z,10.70
2019-05-13T15:57:21.338Z,8.10
2019-05-13T16:00:25.731Z,7.87
2019-05-13T16:03:29.593Z,7.40
2019-05-13T16:06:34.549Z,8.43
2019-05-13T16:09:39.039Z,9.33
2019-05-13T16:12:43.083Z,10.03
2019-05-13T16:15:47.061Z,6.00
2019-05-13T16:18:51.797Z,7.53
2019-05-13T16:21:55.620Z,6.13
2019-05-13T16:25:01.541Z,6.63
2019-05-13T16:28:05.094Z,6.03
2019-05-13T16:31:11.802Z,5.93
2019-05-13T16:34:14.504Z,7.27
2019-05-13T16:37:18.920Z,6.97
2019-05-13T16:40:23.889Z,6.33
2019-05-13T16:43:28.823Z,5.77
2019-05-13T16:46:32.676Z,6.20
2019-05-13T16:49:36.515Z,6.07
2019-05-13T16:52:41.845Z,6.00
2019-05-13T16:55:45.943Z,4.70
2019-05-13T16:58:52.016Z,6.63
2019-05-13T17:01:55.422Z,6.30
2019-05-13T17:05:01.271Z,4.80
2019-05-13T17:08:04.815Z,4.10
2019-05-13T17:11:08.713Z,5.77
2019-05-13T17:14:12.670Z,5.30
2019-05-13T17:17:16.538Z,5.90
2019-05-13T17:20:21.518Z,4.97
2019-05-13T17:23:26.557Z,5.17
2019-05-13T17:26:32.664Z,6.23
2019-05-13T17:29:36.566Z,6.20
2019-05-13T17:32:40.611Z,7.87
2019-05-13T17:35:44.888Z,7.23
2019-05-13T17:39:01.871Z,6.97
2019-05-13T17:42:08.115Z,8.23
2019-05-13T17:45:12.961Z,8.90
2019-05-13T17:48:28.504Z,6.07
2019-05-13T17:55:34.907Z,6.30
2019-05-13T18:02:44.184Z,6.07
2019-05-13T18:05:51.500Z,7.40
2019-05-13T18:08:55.416Z,7.30
2019-05-13T18:11:59.413Z,7.67
2019-05-13T18:15:05.034Z,7.07
2019-05-13T18:18:09.118Z,6.00
2019-05-13T18:21:13.013Z,5.93
2019-05-13T18:24:16.984Z,5.87
2019-05-13T18:27:22.138Z,6.80
2019-05-13T18:30:26.382Z,7.00
2019-05-13T18:33:32.012Z,7.30
2019-05-13T18:36:36.156Z,10.40
2019-05-13T18:39:41.615Z,12.83
2019-05-13T18:42:45.854Z,12.53
2019-05-13T18:45:51.893Z,11.67
2019-05-13T18:48:59.006Z,14.30
2019-05-13T18:52:00.934Z,12.90
2019-05-13T18:55:08.542Z,11.10
2019-05-13T18:58:42.233Z,11.33
2019-05-13T19:01:23.638Z,11.90
2019-05-13T19:04:27.609Z,11.87
2019-05-13T19:07:31.706Z,15.83
2019-05-13T19:10:35.793Z,14.97
2019-05-13T19:13:41.631Z,13.80
2019-05-13T19:16:45.538Z,14.20
2019-05-13T19:19:52.341Z,13.63
2019-05-13T19:22:56.238Z,14.53
2019-05-13T19:26:01.983Z,15.00
2019-05-13T19:29:05.718Z,13.23
2019-05-13T19:32:12.426Z,13.27
2019-05-13T19:35:24.109Z,12.97
2019-05-13T19:38:28.054Z,13.00
2019-05-13T19:41:34.100Z,12.50
2019-05-13T19:44:38.055Z,12.23
2019-05-13T19:51:10.601Z,13.10
2019-05-13T19:54:23.776Z,13.07
2019-05-13T19:57:27.744Z,11.77
2019-05-13T20:00:31.781Z,13.03
2019-05-13T20:03:35.813Z,11.90
2019-05-13T20:06:41.474Z,13.00
2019-05-13T20:09:45.312Z,13.60
2019-05-13T20:12:51.406Z,12.17
2019-05-13T20:16:01.415Z,15.17
2019-05-13T20:19:05.543Z,13.90
2019-05-13T20:22:11.540Z,14.27
2019-05-13T20:25:15.502Z,14.10
2019-05-13T20:28:19.530Z,14.60
2019-05-13T20:31:23.474Z,15.17
2019-05-13T20:34:27.355Z,15.70
2019-05-13T20:37:32.119Z,16.27
2019-05-13T20:40:37.338Z,16.53
2019-05-13T20:43:42.529Z,16.70
2019-05-13T20:46:48.124Z,16.40
2019-05-13T20:50:01.386Z,17.00
2019-05-13T20:52:57.555Z,16.97
2019-05-13T20:56:01.867Z,16.90
2019-05-13T20:59:05.913Z,16.77
2019-05-13T21:02:12.181Z,16.70
2019-05-13T21:05:15.480Z,18.10
2019-05-13T21:08:21.527Z,16.60
2019-05-13T21:11:24.924Z,18.10
2019-05-13T21:14:28.819Z,18.83
2019-05-13T21:17:34.130Z,18.40
2019-05-13T21:20:40.855Z,18.00
2019-05-13T21:23:44.259Z,17.03
2019-05-13T21:26:48.140Z,20.00
2019-05-13T21:29:52.059Z,17.87
2019-05-13T21:32:56.021Z,18.53
2019-05-13T21:36:01.744Z,18.97
2019-05-13T21:39:06.820Z,20.70
2019-05-13T21:42:11.459Z,18.43
2019-05-13T21:45:15.577Z,18.10
2019-05-13T21:48:21.541Z,16.53
2019-05-13T21:51:25.029Z,16.13
2019-05-13T21:54:33.018Z,13.67
2019-05-13T21:57:41.271Z,12.70
2019-05-13T22:00:46.370Z,12.70
2019-05-13T22:03:51.416Z,12.33
2019-05-13T22:06:55.912Z,12.40
2019-05-13T22:10:01.953Z,11.77
2019-05-13T22:13:09.007Z,11.53
2019-05-13T22:16:17.592Z,11.83
2019-05-13T22:19:22.294Z,10.63
2019-05-13T22:22:26.745Z,12.03
2019-05-13T22:25:30.890Z,11.17
2019-05-13T22:28:34.834Z,11.23
2019-05-13T22:31:39.019Z,10.60
2019-05-13T22:34:43.147Z,11.53
2019-05-13T22:37:47.170Z,10.50
2019-05-13T22:40:52.102Z,11.00
2019-05-13T22:43:58.886Z,10.20
2019-05-13T22:47:02.586Z,11.17
2019-05-13T22:50:11.388Z,11.10
2019-05-13T22:53:15.727Z,11.87
2019-05-13T22:56:21.852Z,11.77
2019-05-13T22:59:26.931Z,12.77
2019-05-13T23:02:33.512Z,12.63
2019-05-13T23:05:37.621Z,12.47
2019-05-13T23:08:44.743Z,12.97
2019-05-13T23:11:53.294Z,13.30
2019-05-13T23:15:03.550Z,13.13
2019-05-13T23:18:04.701Z,13.17
2019-05-13T23:21:11.730Z,12.67
2019-05-13T23:24:15.794Z,12.83
2019-05-13T23:27:21.977Z,12.73
2019-05-13T23:30:26.486Z,14.03
2019-05-13T23:33:31.379Z,13.33
2019-05-13T23:36:37.718Z,12.87
2019-05-13T23:39:42.732Z,13.00
2019-05-13T23:42:46.889Z,13.07
2019-05-13T23:45:51.332Z,11.97
2019-05-13T23:48:58.007Z,10.43
2019-05-13T23:52:02.509Z,12.33
2019-05-13T23:55:07.690Z,10.67
2019-05-13T23:58:12.223Z,10.77
